createdAt,value
2023-04-16T00:00:31.314Z,65.39
2023-04-16T00:01:31.374Z,65.04
2023-04-16T00:02:31.527Z,64.85
2023-04-16T00:03:31.676Z,64.85
2023-04-16T00:04:31.522Z,64.84
2023-04-16T00:05:31.530Z,64.69
2023-04-16T00:06:31.569Z,64.58
2023-04-16T00:07:31.602Z,64.54
2023-04-16T00:08:31.632Z,64.65
2023-04-16T00:09:31.660Z,64.47
2023-04-16T00:10:31.704Z,64.26
2023-04-16T00:11:31.742Z,64.21
2023-04-16T00:12:31.744Z,64.19
2023-04-16T00:13:31.788Z,64.34
2023-04-16T00:14:31.825Z,64.39
2023-04-16T00:15:31.862Z,64.53
2023-04-16T00:16:31.954Z,64.79
2023-04-16T00:17:31.992Z,65.05
2023-04-16T00:18:32.038Z,64.95
2023-04-16T00:19:32.030Z,64.94
2023-04-16T00:20:32.068Z,64.83
2023-04-16T00:21:32.108Z,64.75
2023-04-16T00:22:32.143Z,64.89
2023-04-16T00:23:32.166Z,64.85
2023-04-16T00:24:32.181Z,64.94
2023-04-16T00:25:32.216Z,64.88
2023-04-16T00:26:32.251Z,64.67
2023-04-16T00:27:32.304Z,64.54
2023-04-16T00:28:32.312Z,64.27
2023-04-16T00:29:32.338Z,64.80
2023-04-16T00:30:32.358Z,65.47
2023-04-16T00:31:32.428Z,66.06
2023-04-16T00:32:32.453Z,66.15
2023-04-16T00:33:32.457Z,66.12
2023-04-16T00:34:32.528Z,65.94
2023-04-16T00:35:32.523Z,66.01
2023-04-16T00:36:32.538Z,66.08
2023-04-16T00:37:32.580Z,65.85
2023-04-16T00:38:32.646Z,65.94
2023-04-16T00:39:32.642Z,66.06
2023-04-16T00:40:32.680Z,66.08
2023-04-16T00:41:32.713Z,65.98
2023-04-16T00:42:32.745Z,65.83
2023-04-16T00:43:32.759Z,66.17
2023-04-16T00:44:32.787Z,66.11
2023-04-16T00:45:32.822Z,66.20
2023-04-16T00:46:32.884Z,66.03
2023-04-16T00:47:32.928Z,66.17
2023-04-16T00:48:32.934Z,66.36
2023-04-16T00:49:32.988Z,66.35
2023-04-16T00:50:32.996Z,66.31
2023-04-16T00:51:33.043Z,66.46
2023-04-16T00:52:33.064Z,67.00
2023-04-16T00:53:33.076Z,67.10
2023-04-16T00:54:33.129Z,67.20
2023-04-16T00:55:33.214Z,67.06
2023-04-16T00:56:33.287Z,67.07
2023-04-16T00:57:33.350Z,67.18
2023-04-16T00:58:33.408Z,67.17
2023-04-16T00:59:33.472Z,67.16
2023-04-16T01:00:33.532Z,67.15
2023-04-16T01:01:33.690Z,66.79
2023-04-16T01:02:33.923Z,66.61
2023-04-16T01:03:33.992Z,66.57
2023-04-16T01:04:33.900Z,66.64
2023-04-16T01:05:33.971Z,66.78
2023-04-16T01:06:34.087Z,66.89
2023-04-16T01:07:34.172Z,66.92
2023-04-16T01:08:34.268Z,66.95
2023-04-16T01:09:34.334Z,66.95
2023-04-16T01:10:34.417Z,67.24
2023-04-16T01:11:34.519Z,67.45
2023-04-16T01:12:34.687Z,67.63
2023-04-16T01:13:34.865Z,67.72
2023-04-16T01:14:34.724Z,67.66
2023-04-16T01:15:34.857Z,67.70
2023-04-16T01:16:34.960Z,67.97
2023-04-16T01:17:35.099Z,68.22
2023-04-16T01:18:35.120Z,68.32
2023-04-16T01:19:35.232Z,68.13
2023-04-16T01:20:35.327Z,68.09
2023-04-16T01:21:35.403Z,67.98
2023-04-16T01:22:35.498Z,68.09
2023-04-16T01:23:35.573Z,68.25
2023-04-16T01:24:35.691Z,68.18
2023-04-16T01:25:35.773Z,67.89
2023-04-16T01:26:35.854Z,67.78
2023-04-16T01:27:35.956Z,67.74
2023-04-16T01:28:36.049Z,67.66
2023-04-16T01:29:36.113Z,67.59
2023-04-16T01:30:36.174Z,67.48
2023-04-16T01:31:36.288Z,67.31
2023-04-16T01:32:36.389Z,67.41
2023-04-16T01:33:36.437Z,67.53
2023-04-16T01:34:36.632Z,67.59
2023-04-16T01:35:36.653Z,68.14
2023-04-16T01:36:36.719Z,68.66
2023-04-16T01:37:36.821Z,68.97
2023-04-16T01:38:36.889Z,69.06
2023-04-16T01:39:36.996Z,69.13
2023-04-16T01:40:37.063Z,68.98
2023-04-16T01:41:37.139Z,68.87
2023-04-16T01:42:37.739Z,68.65
2023-04-16T01:43:40.084Z,68.54
2023-04-16T01:44:37.423Z,68.57
2023-04-16T01:45:37.456Z,68.56
2023-04-16T01:46:37.509Z,68.51
2023-04-16T01:47:37.579Z,68.37
2023-04-16T01:48:37.541Z,67.98
2023-04-16T01:49:37.578Z,67.81
2023-04-16T01:50:37.650Z,67.74
2023-04-16T01:51:37.661Z,67.59
2023-04-16T01:52:37.725Z,67.46
2023-04-16T01:53:37.743Z,67.42
2023-04-16T01:54:37.776Z,67.38
2023-04-16T01:55:37.813Z,67.25
2023-04-16T01:56:37.847Z,67.14
2023-04-16T01:57:37.911Z,66.93
2023-04-16T01:58:37.965Z,66.75
2023-04-16T01:59:37.951Z,66.80
2023-04-16T02:00:38.054Z,66.86
2023-04-16T02:01:38.050Z,67.00
2023-04-16T02:02:38.196Z,66.91
2023-04-16T02:03:38.222Z,66.83
2023-04-16T02:04:38.134Z,67.56
2023-04-16T02:05:38.168Z,68.33
2023-04-16T02:06:38.202Z,68.30
2023-04-16T02:07:38.243Z,68.43
2023-04-16T02:08:38.279Z,68.33
2023-04-16T02:09:38.299Z,68.07
2023-04-16T02:10:38.355Z,67.77
2023-04-16T02:11:38.380Z,67.68
2023-04-16T02:12:38.418Z,67.60
2023-04-16T02:13:38.506Z,67.62
2023-04-16T02:14:38.521Z,67.49
2023-04-16T02:15:38.565Z,67.29
2023-04-16T02:16:39.278Z,67.13
2023-04-16T02:17:38.646Z,67.03
2023-04-16T02:18:38.644Z,66.90
2023-04-16T02:19:38.685Z,66.75
2023-04-16T02:20:38.736Z,66.88
2023-04-16T02:21:38.783Z,67.06
2023-04-16T02:22:38.844Z,67.12
2023-04-16T02:23:38.869Z,67.07
2023-04-16T02:24:38.912Z,66.96
2023-04-16T02:25:38.954Z,66.93
2023-04-16T02:26:39.018Z,66.99
2023-04-16T02:27:39.088Z,66.94
2023-04-16T02:28:39.119Z,66.96
2023-04-16T02:29:39.157Z,66.99
2023-04-16T02:30:39.203Z,67.08
2023-04-16T02:31:39.318Z,67.29
2023-04-16T02:32:39.355Z,67.24
2023-04-16T02:33:39.333Z,67.30
2023-04-16T02:34:39.404Z,67.27
2023-04-16T02:35:39.450Z,67.19
2023-04-16T02:36:39.485Z,67.11
2023-04-16T02:37:39.531Z,67.25
2023-04-16T02:38:39.559Z,67.26
2023-04-16T02:39:39.625Z,67.22
2023-04-16T02:40:39.661Z,67.15
2023-04-16T02:41:39.713Z,67.15
2023-04-16T02:42:39.761Z,67.39
2023-04-16T02:43:40.238Z,67.40
2023-04-16T02:44:39.872Z,67.49
2023-04-16T02:45:39.944Z,67.56
2023-04-16T02:46:39.939Z,67.54
2023-04-16T02:47:40.036Z,67.47
2023-04-16T02:48:40.062Z,67.35
2023-04-16T02:49:40.106Z,67.32
2023-04-16T02:50:40.216Z,67.28
2023-04-16T02:51:40.282Z,67.31
2023-04-16T02:52:40.339Z,67.36
2023-04-16T02:53:40.392Z,67.42
2023-04-16T02:54:40.460Z,67.44
2023-04-16T02:55:40.563Z,67.40
2023-04-16T02:56:40.638Z,67.32
2023-04-16T02:57:40.704Z,67.50
2023-04-16T02:58:40.778Z,67.45
2023-04-16T02:59:40.874Z,67.53
2023-04-16T03:00:40.951Z,67.78
2023-04-16T03:01:40.993Z,67.53
2023-04-16T03:02:41.184Z,67.35
2023-04-16T03:03:41.194Z,67.26
2023-04-16T03:04:41.517Z,67.12
2023-04-16T03:05:41.384Z,67.13
2023-04-16T03:06:41.466Z,67.51
2023-04-16T03:07:41.530Z,67.61
2023-04-16T03:08:41.596Z,67.47
2023-04-16T03:09:41.653Z,67.19
2023-04-16T03:10:41.721Z,66.93
2023-04-16T03:11:41.774Z,66.81
2023-04-16T03:12:41.788Z,67.11
2023-04-16T03:13:41.821Z,67.05
2023-04-16T03:14:41.895Z,66.91
2023-04-16T03:15:41.957Z,66.77
2023-04-16T03:16:41.995Z,66.79
2023-04-16T03:17:42.086Z,67.01
2023-04-16T03:18:42.133Z,67.27
2023-04-16T03:19:42.205Z,67.77
2023-04-16T03:20:42.297Z,68.08
2023-04-16T03:21:42.283Z,68.05
2023-04-16T03:22:42.313Z,67.78
2023-04-16T03:23:42.478Z,67.76
2023-04-16T03:24:42.417Z,67.52
2023-04-16T03:25:42.494Z,67.38
2023-04-16T03:26:42.614Z,67.26
2023-04-16T03:27:42.649Z,67.14
2023-04-16T03:28:42.737Z,67.14
2023-04-16T03:29:42.809Z,67.16
2023-04-16T03:30:42.859Z,67.00
2023-04-16T03:31:43.051Z,66.84
2023-04-16T03:32:43.066Z,66.84
2023-04-16T03:33:43.082Z,66.87
2023-04-16T03:34:43.157Z,67.01
2023-04-16T03:35:43.231Z,66.56
2023-04-16T03:36:43.311Z,66.41
2023-04-16T03:37:43.361Z,66.64
2023-04-16T03:38:43.439Z,66.83
2023-04-16T03:39:43.549Z,66.98
2023-04-16T03:40:43.738Z,66.85
2023-04-16T03:41:43.723Z,66.73
2023-04-16T03:42:43.784Z,66.72
2023-04-16T03:43:43.890Z,66.89
2023-04-16T03:44:44.016Z,66.99
2023-04-16T03:45:44.171Z,66.98
2023-04-16T03:46:44.170Z,67.11
2023-04-16T03:47:44.262Z,67.21
2023-04-16T03:48:44.241Z,67.21
2023-04-16T03:49:44.300Z,67.00
2023-04-16T03:50:44.302Z,66.95
2023-04-16T03:51:44.345Z,66.88
2023-04-16T03:52:44.376Z,66.87
2023-04-16T03:53:44.423Z,67.00
2023-04-16T03:54:44.455Z,67.06
2023-04-16T03:55:44.547Z,67.22
2023-04-16T03:56:44.638Z,67.15
2023-04-16T03:57:44.765Z,67.21
2023-04-16T03:58:45.276Z,67.30
2023-04-16T03:59:45.825Z,67.44
2023-04-16T04:00:45.069Z,67.35
2023-04-16T04:01:45.097Z,67.36
2023-04-16T04:02:46.029Z,67.41
2023-04-16T04:03:45.387Z,67.34
2023-04-16T04:04:45.268Z,67.10
2023-04-16T04:05:45.254Z,66.88
2023-04-16T04:06:45.324Z,66.80
2023-04-16T04:07:45.402Z,66.84
2023-04-16T04:08:45.469Z,66.84
2023-04-16T04:09:45.536Z,66.79
2023-04-16T04:10:45.603Z,66.81
2023-04-16T04:11:45.672Z,66.88
2023-04-16T04:12:45.754Z,66.95
2023-04-16T04:13:45.786Z,66.82
2023-04-16T04:14:45.868Z,67.00
2023-04-16T04:15:45.964Z,67.45
2023-04-16T04:16:46.136Z,67.70
2023-04-16T04:17:46.201Z,67.64
2023-04-16T04:18:46.190Z,67.32
2023-04-16T04:19:59.895Z,67.36
2023-04-16T04:20:47.298Z,67.36
2023-04-16T04:21:46.333Z,67.32
2023-04-16T04:22:46.375Z,67.36
2023-04-16T04:23:46.417Z,67.47
2023-04-16T04:24:46.442Z,67.35
2023-04-16T04:25:46.475Z,67.33
2023-04-16T04:26:46.550Z,67.27
2023-04-16T04:27:46.577Z,67.20
2023-04-16T04:28:46.620Z,66.94
2023-04-16T04:29:46.620Z,66.95
2023-04-16T04:30:46.799Z,66.94
2023-04-16T04:31:46.794Z,66.78
2023-04-16T04:32:46.816Z,67.00
2023-04-16T04:33:46.868Z,66.98
2023-04-16T04:34:46.980Z,66.84
2023-04-16T04:35:47.071Z,66.83
2023-04-16T04:36:47.156Z,66.84
2023-04-16T04:37:47.228Z,66.84
2023-04-16T04:38:47.317Z,66.97
2023-04-16T04:39:47.385Z,67.14
2023-04-16T04:40:47.422Z,67.11
2023-04-16T04:41:47.517Z,67.22
2023-04-16T04:42:47.616Z,67.28
2023-04-16T04:43:47.714Z,67.37
2023-04-16T04:44:47.871Z,66.97
2023-04-16T04:45:47.947Z,67.00
2023-04-16T04:46:48.014Z,67.19
2023-04-16T04:47:48.102Z,67.26
2023-04-16T04:48:48.257Z,67.19
2023-04-16T04:49:48.347Z,67.03
2023-04-16T04:50:48.415Z,67.70
2023-04-16T04:51:48.507Z,68.00
2023-04-16T04:52:48.593Z,68.04
2023-04-16T04:53:48.703Z,68.29
2023-04-16T04:54:48.798Z,68.45
2023-04-16T04:55:52.285Z,68.60
2023-04-16T04:56:50.101Z,69.22
2023-04-16T04:57:48.963Z,69.73
2023-04-16T04:58:49.124Z,69.85
2023-04-16T04:59:49.074Z,69.81
2023-04-16T05:00:49.179Z,69.66
2023-04-16T05:01:49.234Z,69.49
2023-04-16T05:02:49.301Z,69.45
2023-04-16T05:03:49.438Z,69.41
2023-04-16T05:04:49.368Z,69.50
2023-04-16T05:05:49.346Z,69.62
2023-04-16T05:06:49.400Z,69.66
2023-04-16T05:07:49.455Z,69.59
2023-04-16T05:08:49.566Z,69.43
2023-04-16T05:09:49.775Z,69.22
2023-04-16T05:10:49.764Z,69.24
2023-04-16T05:11:49.948Z,69.01
2023-04-16T05:12:49.990Z,69.19
2023-04-16T05:13:49.993Z,68.89
2023-04-16T05:14:50.023Z,68.65
2023-04-16T05:15:50.784Z,68.62
2023-04-16T05:16:50.801Z,68.51
2023-04-16T05:17:50.120Z,68.45
2023-04-16T05:18:50.150Z,68.39
2023-04-16T05:19:50.156Z,68.34
2023-04-16T05:20:50.274Z,68.17
2023-04-16T05:21:50.312Z,68.07
2023-04-16T05:22:51.271Z,67.96
2023-04-16T05:23:50.368Z,67.99
2023-04-16T05:24:50.401Z,67.96
2023-04-16T05:25:50.645Z,67.89
2023-04-16T05:26:50.521Z,67.70
2023-04-16T05:27:50.571Z,67.67
2023-04-16T05:28:51.308Z,67.74
2023-04-16T05:29:50.780Z,67.81
2023-04-16T05:30:50.680Z,67.87
2023-04-16T05:31:50.687Z,67.77
2023-04-16T05:32:50.750Z,67.59
2023-04-16T05:33:50.782Z,67.45
2023-04-16T05:34:50.809Z,67.17
2023-04-16T05:35:50.826Z,67.12
2023-04-16T05:36:50.881Z,67.34
2023-04-16T05:37:50.929Z,67.49
2023-04-16T05:38:50.962Z,67.42
2023-04-16T05:39:50.993Z,67.27
2023-04-16T05:40:51.027Z,67.24
2023-04-16T05:41:51.061Z,67.05
2023-04-16T05:42:51.098Z,67.16
2023-04-16T05:43:51.129Z,67.12
2023-04-16T05:44:51.199Z,67.13
2023-04-16T05:45:51.290Z,67.08
2023-04-16T05:46:51.314Z,66.91
2023-04-16T05:47:51.427Z,66.79
2023-04-16T05:48:51.414Z,66.67
2023-04-16T05:49:51.468Z,66.71
2023-04-16T05:50:51.549Z,66.85
2023-04-16T05:51:51.599Z,66.76
2023-04-16T05:52:51.686Z,66.60
2023-04-16T05:53:51.758Z,66.28
2023-04-16T05:54:51.832Z,66.06
2023-04-16T05:55:51.914Z,66.00
2023-04-16T05:56:51.999Z,65.94
2023-04-16T05:57:52.068Z,66.05
2023-04-16T05:58:52.146Z,66.01
2023-04-16T05:59:52.246Z,66.14
2023-04-16T06:00:52.338Z,66.15
2023-04-16T06:01:52.489Z,66.09
2023-04-16T06:02:52.599Z,65.86
2023-04-16T06:03:52.614Z,65.70
2023-04-16T06:04:52.675Z,65.58
2023-04-16T06:05:52.827Z,65.87
2023-04-16T06:06:52.823Z,65.70
2023-04-16T06:07:52.887Z,65.38
2023-04-16T06:08:52.974Z,65.25
2023-04-16T06:09:53.043Z,65.30
2023-04-16T06:10:53.120Z,65.61
2023-04-16T06:11:53.180Z,65.60
2023-04-16T06:12:53.314Z,65.40
2023-04-16T06:13:53.347Z,65.49
2023-04-16T06:14:53.439Z,65.67
2023-04-16T06:15:53.523Z,65.65
2023-04-16T06:16:53.587Z,65.71
2023-04-16T06:17:53.723Z,65.87
2023-04-16T06:18:53.713Z,65.91
2023-04-16T06:19:53.806Z,65.87
2023-04-16T06:20:53.862Z,65.77
2023-04-16T06:21:53.928Z,65.66
2023-04-16T06:22:53.994Z,65.56
2023-04-16T06:23:54.064Z,65.54
2023-04-16T06:24:54.173Z,65.38
2023-04-16T06:25:54.218Z,65.37
2023-04-16T06:26:54.289Z,65.35
2023-04-16T06:27:54.387Z,65.14
2023-04-16T06:28:54.458Z,65.19
2023-04-16T06:29:54.556Z,65.00
2023-04-16T06:30:54.597Z,64.93
2023-04-16T06:31:54.676Z,65.00
2023-04-16T06:32:54.744Z,64.97
2023-04-16T06:33:54.842Z,64.71
2023-04-16T06:34:55.280Z,64.65
2023-04-16T06:35:54.906Z,64.66
2023-04-16T06:36:54.950Z,64.38
2023-04-16T06:37:55.002Z,64.32
2023-04-16T06:38:55.152Z,64.17
2023-04-16T06:39:55.791Z,64.33
2023-04-16T06:40:55.225Z,64.49
2023-04-16T06:41:55.320Z,64.30
2023-04-16T06:42:55.429Z,63.71
2023-04-16T06:43:55.468Z,63.47
2023-04-16T06:44:55.541Z,63.32
2023-04-16T06:45:55.606Z,63.54
2023-04-16T06:46:55.721Z,63.37
2023-04-16T06:47:55.789Z,63.06
2023-04-16T06:48:55.823Z,63.27
2023-04-16T06:49:55.896Z,63.73
2023-04-16T06:50:55.989Z,63.86
2023-04-16T06:51:56.059Z,63.67
2023-04-16T06:52:56.129Z,63.60
2023-04-16T06:53:56.197Z,63.34
2023-04-16T06:54:56.369Z,62.92
2023-04-16T06:55:56.345Z,63.16
2023-04-16T06:56:56.367Z,63.01
2023-04-16T06:57:56.437Z,62.85
2023-04-16T06:58:56.487Z,62.63
2023-04-16T06:59:56.589Z,62.50
2023-04-16T07:00:56.719Z,62.36
2023-04-16T07:01:56.791Z,62.38
2023-04-16T07:02:58.508Z,62.44
2023-04-16T07:03:57.050Z,62.45
2023-04-16T07:04:56.934Z,62.58
2023-04-16T07:05:56.975Z,62.14
2023-04-16T07:06:57.085Z,62.04
2023-04-16T07:07:57.056Z,62.08
2023-04-16T07:08:57.090Z,61.77
2023-04-16T07:09:57.088Z,61.58
2023-04-16T07:10:57.123Z,61.46
2023-04-16T07:11:57.148Z,61.29
2023-04-16T07:12:57.238Z,61.56
2023-04-16T07:13:57.214Z,61.57
2023-04-16T07:14:57.214Z,61.57
2023-04-16T07:15:57.233Z,61.17
2023-04-16T07:16:57.269Z,62.44
2023-04-16T07:17:57.425Z,62.31
2023-04-16T07:18:57.284Z,61.00
2023-04-16T07:19:57.369Z,60.52
2023-04-16T07:20:57.329Z,60.34
2023-04-16T07:21:57.346Z,60.26
2023-04-16T07:22:57.339Z,59.71
2023-04-16T07:23:57.334Z,59.10
2023-04-16T07:24:57.345Z,59.29
2023-04-16T07:25:57.371Z,60.43
2023-04-16T07:26:57.388Z,61.04
2023-04-16T07:27:57.446Z,60.49
2023-04-16T07:28:57.521Z,60.54
2023-04-16T07:29:57.587Z,60.78
2023-04-16T07:30:57.697Z,60.36
2023-04-16T07:31:57.738Z,59.98
2023-04-16T07:32:57.771Z,60.68
2023-04-16T07:33:57.848Z,60.77
2023-04-16T07:34:57.930Z,60.47
2023-04-16T07:35:57.995Z,61.25
2023-04-16T07:36:58.034Z,61.32
2023-04-16T07:37:58.113Z,61.20
2023-04-16T07:38:58.177Z,60.71
2023-04-16T07:39:58.252Z,60.28
2023-04-16T07:40:58.319Z,60.40
2023-04-16T07:41:58.367Z,60.38
2023-04-16T07:42:58.424Z,60.40
2023-04-16T07:43:58.493Z,60.47
2023-04-16T07:44:58.600Z,60.90
2023-04-16T07:45:58.648Z,60.55
2023-04-16T07:46:58.725Z,60.04
2023-04-16T07:47:59.343Z,59.07
2023-04-16T07:48:58.777Z,58.88
2023-04-16T07:49:58.858Z,58.82
2023-04-16T07:50:58.908Z,58.25
2023-04-16T07:51:58.894Z,58.72
2023-04-16T07:52:59.772Z,58.65
2023-04-16T07:53:58.986Z,59.16
2023-04-16T07:54:59.043Z,59.52
2023-04-16T07:55:59.096Z,59.94
2023-04-16T07:56:59.173Z,60.07
2023-04-16T07:57:59.225Z,60.20
2023-04-16T07:59:07.887Z,59.56
2023-04-16T08:00:00.336Z,59.96
2023-04-16T08:00:59.382Z,60.51
2023-04-16T08:01:59.528Z,60.54
2023-04-16T08:02:59.522Z,59.66
2023-04-16T08:03:59.607Z,59.14
2023-04-16T08:04:59.636Z,58.79
2023-04-16T08:05:59.517Z,58.58
2023-04-16T08:07:00.286Z,58.37
2023-04-16T08:07:59.564Z,59.78
2023-04-16T08:08:59.564Z,59.42
2023-04-16T08:09:59.599Z,58.72
2023-04-16T08:10:59.624Z,58.44
2023-04-16T08:11:59.628Z,58.29
2023-04-16T08:12:59.647Z,57.50
2023-04-16T08:13:59.665Z,57.62
2023-04-16T08:14:59.669Z,58.45
2023-04-16T08:15:59.769Z,57.94
2023-04-16T08:16:59.791Z,58.27
2023-04-16T08:17:59.922Z,57.74
2023-04-16T08:18:59.936Z,57.21
2023-04-16T08:20:00.000Z,56.68
2023-04-16T08:21:00.136Z,57.37
2023-04-16T08:22:00.160Z,57.88
2023-04-16T08:23:00.168Z,58.03
2023-04-16T08:24:00.242Z,57.55
2023-04-16T08:25:00.292Z,57.43
2023-04-16T08:26:00.345Z,57.82
2023-04-16T08:27:15.123Z,58.18
2023-04-16T08:28:01.428Z,58.24
2023-04-16T08:29:00.438Z,56.90
2023-04-16T08:30:00.458Z,56.84
2023-04-16T08:31:00.515Z,56.84
2023-04-16T08:32:00.483Z,56.49
2023-04-16T08:33:00.537Z,57.66
2023-04-16T08:34:00.522Z,59.84
2023-04-16T08:35:00.541Z,61.39
2023-04-16T08:36:00.587Z,61.19
2023-04-16T08:37:00.587Z,60.47
2023-04-16T08:38:02.276Z,60.52
2023-04-16T08:39:01.286Z,59.60
2023-04-16T08:40:00.676Z,59.14
2023-04-16T08:41:00.715Z,58.93
2023-04-16T08:42:00.804Z,58.86
2023-04-16T08:43:00.841Z,58.52
2023-04-16T08:44:00.891Z,58.44
2023-04-16T08:45:00.946Z,57.98
2023-04-16T08:46:00.990Z,57.88
2023-04-16T08:47:01.077Z,58.98
2023-04-16T08:48:01.167Z,58.30
2023-04-16T08:49:01.207Z,58.81
2023-04-16T08:50:01.314Z,59.92
2023-04-16T08:51:01.441Z,60.29
2023-04-16T08:52:01.487Z,60.37
2023-04-16T08:53:01.582Z,60.67
2023-04-16T08:54:01.572Z,60.06
2023-04-16T08:55:01.653Z,59.09
2023-04-16T08:56:01.835Z,58.94
2023-04-16T08:57:01.917Z,58.84
2023-04-16T08:58:01.893Z,58.22
2023-04-16T08:59:02.061Z,58.71
2023-04-16T09:00:02.023Z,59.47
2023-04-16T09:01:02.024Z,59.42
2023-04-16T09:02:02.180Z,59.54
2023-04-16T09:03:02.325Z,58.53
2023-04-16T09:04:02.362Z,58.42
2023-04-16T09:05:02.322Z,57.24
2023-04-16T09:06:02.270Z,56.18
2023-04-16T09:07:02.335Z,56.19
2023-04-16T09:08:02.377Z,55.46
2023-04-16T09:09:02.426Z,55.51
2023-04-16T09:10:02.489Z,56.80
2023-04-16T09:11:02.525Z,54.22
2023-04-16T09:12:02.591Z,54.02
2023-04-16T09:13:02.658Z,53.58
2023-04-16T09:14:02.737Z,53.95
2023-04-16T09:15:02.795Z,53.60
2023-04-16T09:16:02.867Z,53.80
2023-04-16T09:17:02.854Z,53.35
2023-04-16T09:18:02.913Z,54.14
2023-04-16T09:19:02.912Z,54.08
2023-04-16T09:20:02.983Z,52.74
2023-04-16T09:21:03.063Z,52.56
2023-04-16T09:22:03.085Z,52.26
2023-04-16T09:23:03.159Z,53.17
2023-04-16T09:24:03.196Z,53.09
2023-04-16T09:25:03.248Z,53.10
2023-04-16T09:26:03.321Z,52.90
2023-04-16T09:27:03.348Z,54.02
2023-04-16T09:28:03.415Z,53.45
2023-04-16T09:29:03.447Z,53.75
2023-04-16T09:30:03.474Z,53.46
2023-04-16T09:31:03.536Z,53.18
2023-04-16T09:32:03.659Z,53.55
2023-04-16T09:33:03.599Z,53.58
2023-04-16T09:34:03.655Z,53.40
2023-04-16T09:35:03.716Z,53.23
2023-04-16T09:36:03.752Z,52.85
2023-04-16T09:37:03.761Z,52.61
2023-04-16T09:38:03.814Z,52.43
2023-04-16T09:39:03.843Z,52.39
2023-04-16T09:40:03.970Z,52.15
2023-04-16T09:41:03.884Z,53.86
2023-04-16T09:42:03.924Z,53.76
2023-04-16T09:43:04.006Z,53.15
2023-04-16T09:44:04.072Z,53.07
2023-04-16T09:45:06.049Z,53.28
2023-04-16T09:46:08.278Z,53.51
2023-04-16T09:47:04.196Z,52.99
2023-04-16T09:48:04.338Z,53.66
2023-04-16T09:49:04.219Z,53.86
2023-04-16T09:50:04.226Z,54.08
2023-04-16T09:51:04.266Z,53.84
2023-04-16T09:52:04.266Z,53.37
2023-04-16T09:53:04.300Z,53.95
2023-04-16T09:54:04.297Z,53.19
2023-04-16T09:55:04.323Z,52.71
2023-04-16T09:56:04.357Z,53.43
2023-04-16T09:57:04.376Z,53.33
2023-04-16T09:58:04.406Z,53.10
2023-04-16T09:59:04.378Z,52.31
2023-04-16T10:00:04.413Z,51.39
2023-04-16T10:01:04.426Z,51.77
2023-04-16T10:02:14.484Z,52.19
2023-04-16T10:03:05.703Z,51.26
2023-04-16T10:04:04.586Z,51.42
2023-04-16T10:05:04.548Z,50.69
2023-04-16T10:06:04.562Z,49.67
2023-04-16T10:07:04.561Z,49.88
2023-04-16T10:08:04.564Z,49.32
2023-04-16T10:09:04.597Z,49.60
2023-04-16T10:10:04.604Z,50.94
2023-04-16T10:11:04.602Z,50.35
2023-04-16T10:12:04.638Z,50.41
2023-04-16T10:13:04.638Z,50.21
2023-04-16T10:14:04.633Z,49.98
2023-04-16T10:15:04.673Z,49.47
2023-04-16T10:16:04.683Z,49.49
2023-04-16T10:17:04.750Z,49.49
2023-04-16T10:18:04.761Z,49.37
2023-04-16T10:19:04.747Z,49.10
2023-04-16T10:20:04.803Z,48.68
2023-04-16T10:21:04.825Z,48.67
2023-04-16T10:22:05.000Z,48.54
2023-04-16T10:23:04.987Z,49.46
2023-04-16T10:24:05.055Z,49.99
2023-04-16T10:25:05.212Z,49.22
2023-04-16T10:26:05.283Z,50.88
2023-04-16T10:27:05.341Z,50.15
2023-04-16T10:28:05.403Z,49.87
2023-04-16T10:29:05.486Z,48.69
2023-04-16T10:30:05.627Z,48.77
2023-04-16T10:31:05.708Z,47.88
2023-04-16T10:32:05.701Z,48.64
2023-04-16T10:33:05.792Z,48.14
2023-04-16T10:34:05.802Z,47.35
2023-04-16T10:35:05.874Z,47.22
2023-04-16T10:36:07.842Z,49.41
2023-04-16T10:37:05.889Z,48.67
2023-04-16T10:38:06.803Z,48.03
2023-04-16T10:39:06.019Z,48.48
2023-04-16T10:40:05.984Z,49.18
2023-04-16T10:41:06.036Z,47.88
2023-04-16T10:42:06.070Z,47.73
2023-04-16T10:43:06.118Z,47.13
2023-04-16T10:44:06.098Z,47.71
2023-04-16T10:45:06.125Z,47.48
2023-04-16T10:46:06.168Z,46.84
2023-04-16T10:47:06.193Z,46.90
2023-04-16T10:48:06.205Z,46.33
2023-04-16T10:49:06.232Z,45.76
2023-04-16T10:50:06.274Z,45.44
2023-04-16T10:51:06.307Z,46.10
2023-04-16T10:52:06.346Z,45.90
2023-04-16T10:53:06.372Z,45.57
2023-04-16T10:54:06.408Z,45.52
2023-04-16T10:55:06.444Z,45.15
2023-04-16T10:56:06.443Z,45.35
2023-04-16T10:57:06.478Z,45.59
2023-04-16T10:58:06.510Z,46.46
2023-04-16T10:59:06.536Z,46.19
2023-04-16T11:00:06.597Z,45.91
2023-04-16T11:01:06.616Z,45.03
2023-04-16T11:02:06.668Z,44.58
2023-04-16T11:03:06.850Z,44.86
2023-04-16T11:04:06.810Z,43.78
2023-04-16T11:05:06.712Z,45.07
2023-04-16T11:06:06.737Z,44.91
2023-04-16T11:07:06.779Z,44.98
2023-04-16T11:08:06.809Z,45.04
2023-04-16T11:09:06.869Z,45.69
2023-04-16T11:10:06.947Z,45.12
2023-04-16T11:11:07.002Z,46.10
2023-04-16T11:12:07.080Z,46.70
2023-04-16T11:13:07.156Z,46.21
2023-04-16T11:14:07.317Z,45.81
2023-04-16T11:15:07.340Z,46.00
2023-04-16T11:16:07.405Z,45.83
2023-04-16T11:17:07.367Z,46.12
2023-04-16T11:18:07.535Z,45.69
2023-04-16T11:19:07.428Z,46.67
2023-04-16T11:20:19.290Z,45.74
2023-04-16T11:21:08.438Z,45.21
2023-04-16T11:22:07.410Z,45.05
2023-04-16T11:23:07.413Z,44.58
2023-04-16T11:24:07.417Z,45.26
2023-04-16T11:25:07.423Z,45.23
2023-04-16T11:26:07.454Z,45.27
2023-04-16T11:27:07.498Z,46.41
2023-04-16T11:28:07.493Z,46.29
2023-04-16T11:29:07.543Z,45.99
2023-04-16T11:30:07.612Z,45.63
2023-04-16T11:31:07.666Z,45.48
2023-04-16T11:32:07.591Z,45.64
2023-04-16T11:33:07.628Z,45.54
2023-04-16T11:34:07.637Z,45.24
2023-04-16T11:35:07.723Z,46.45
2023-04-16T11:36:07.788Z,46.13
2023-04-16T11:37:07.859Z,46.05
2023-04-16T11:38:07.973Z,46.13
2023-04-16T11:39:08.050Z,46.44
2023-04-16T11:40:07.996Z,45.82
2023-04-16T11:41:08.030Z,44.87
2023-04-16T11:42:08.090Z,44.78
2023-04-16T11:43:08.169Z,44.76
2023-04-16T11:44:08.187Z,44.62
2023-04-16T11:45:08.220Z,44.34
2023-04-16T11:46:20.470Z,44.85
2023-04-16T11:47:09.325Z,44.45
2023-04-16T11:48:11.078Z,45.43
2023-04-16T11:49:08.518Z,45.04
2023-04-16T11:50:08.312Z,45.32
2023-04-16T11:51:08.327Z,45.48
2023-04-16T11:52:08.333Z,45.31
2023-04-16T11:53:08.361Z,44.76
2023-04-16T11:54:11.083Z,44.02
2023-04-16T11:55:09.318Z,44.47
2023-04-16T11:56:08.324Z,44.97
2023-04-16T11:57:08.336Z,44.85
2023-04-16T11:58:08.333Z,45.32
2023-04-16T11:59:08.638Z,45.41
2023-04-16T12:01:08.303Z,46.36
2023-04-16T12:02:08.426Z,46.65
2023-04-16T12:03:08.573Z,46.77
2023-04-16T12:04:08.620Z,47.05
2023-04-16T12:05:08.340Z,47.14
2023-04-16T12:06:08.290Z,47.39
2023-04-16T12:07:08.318Z,48.15
2023-04-16T12:08:08.282Z,47.54
2023-04-16T12:09:08.545Z,47.13
2023-04-16T12:10:08.306Z,47.74
2023-04-16T12:11:08.288Z,46.88
2023-04-16T12:12:08.301Z,47.22
2023-04-16T12:13:08.286Z,47.28
2023-04-16T12:14:08.295Z,47.26
2023-04-16T12:15:08.284Z,47.07
2023-04-16T12:16:08.321Z,47.41
2023-04-16T12:17:08.348Z,47.62
2023-04-16T12:18:08.349Z,47.15
2023-04-16T12:19:08.470Z,47.29
2023-04-16T12:20:08.296Z,46.90
2023-04-16T12:21:08.272Z,46.75
2023-04-16T12:22:08.277Z,45.96
2023-04-16T12:23:08.261Z,46.39
2023-04-16T12:24:08.263Z,46.68
2023-04-16T12:25:08.290Z,46.88
2023-04-16T12:26:08.304Z,46.88
2023-04-16T12:27:08.295Z,47.22
2023-04-16T12:28:08.289Z,47.22
2023-04-16T12:29:08.452Z,46.40
2023-04-16T12:30:08.319Z,46.39
2023-04-16T12:31:08.501Z,46.13
2023-04-16T12:32:08.419Z,46.24
2023-04-16T12:33:08.457Z,45.86
2023-04-16T12:34:08.463Z,45.61
2023-04-16T12:35:08.489Z,46.49
2023-04-16T12:36:08.540Z,46.36
2023-04-16T12:37:08.609Z,46.39
2023-04-16T12:38:08.842Z,46.26
2023-04-16T12:39:08.835Z,47.15
2023-04-16T12:40:08.674Z,47.83
2023-04-16T12:41:08.684Z,47.38
2023-04-16T12:42:08.711Z,47.52
2023-04-16T12:43:08.722Z,47.97
2023-04-16T12:44:08.756Z,47.93
2023-04-16T12:45:08.827Z,47.99
2023-04-16T12:46:08.833Z,47.66
2023-04-16T12:47:08.901Z,47.35
2023-04-16T12:48:08.926Z,46.66
2023-04-16T12:49:09.102Z,46.56
2023-04-16T12:50:08.998Z,47.93
2023-04-16T12:51:09.039Z,48.26
2023-04-16T12:52:09.103Z,48.82
2023-04-16T12:53:09.152Z,49.80
2023-04-16T12:54:09.182Z,49.62